createdAt,value
2022-10-02T00:00:01.331Z,7.50
2022-10-02T00:02:55.169Z,6.88
2022-10-02T00:05:49.948Z,10.05
2022-10-02T00:08:41.479Z,6.55
2022-10-02T00:11:39.489Z,4.07
2022-10-02T00:14:31.395Z,9.20
2022-10-02T00:17:24.024Z,10.90
2022-10-02T00:20:15.574Z,7.90
2022-10-02T00:23:08.999Z,10.35
2022-10-02T00:26:03.160Z,9.60
2022-10-02T00:29:01.504Z,8.57
2022-10-02T00:32:07.145Z,13.95
2022-10-02T00:35:21.380Z,12.35
2022-10-02T00:38:21.837Z,11.05
2022-10-02T00:41:28.899Z,5.88
2022-10-02T00:44:32.013Z,5.28
2022-10-02T00:47:29.340Z,11.45
2022-10-02T00:50:27.167Z,12.57
2022-10-02T00:53:29.973Z,12.68
2022-10-02T00:56:29.297Z,15.32
2022-10-02T00:59:45.602Z,7.82
2022-10-02T01:02:59.285Z,14.77
2022-10-02T01:05:47.782Z,5.80
2022-10-02T01:08:38.118Z,6.68
2022-10-02T01:11:27.248Z,9.90
2022-10-02T01:14:16.714Z,6.57
2022-10-02T01:17:07.406Z,10.25
2022-10-02T01:19:56.283Z,11.50
2022-10-02T01:22:50.279Z,10.50
2022-10-02T01:25:40.029Z,10.02
2022-10-02T01:28:28.754Z,9.02
2022-10-02T01:31:18.727Z,8.25
2022-10-02T01:34:07.759Z,10.20
2022-10-02T01:36:56.208Z,9.65
2022-10-02T01:39:45.417Z,8.80
2022-10-02T01:42:35.288Z,8.27
2022-10-02T01:45:33.830Z,8.43
2022-10-02T01:48:36.364Z,10.88
2022-10-02T01:51:43.052Z,12.52
2022-10-02T01:54:42.747Z,11.73
2022-10-02T01:57:47.795Z,11.68
2022-10-02T02:00:47.794Z,10.57
2022-10-02T02:03:44.857Z,10.27
2022-10-02T02:06:36.388Z,7.22
2022-10-02T02:09:32.208Z,8.85
2022-10-02T02:12:23.436Z,10.05
2022-10-02T02:15:21.289Z,5.57
2022-10-02T02:18:18.135Z,10.38
2022-10-02T02:21:09.873Z,12.18
2022-10-02T02:24:01.018Z,18.50
2022-10-02T02:26:50.635Z,8.55
2022-10-02T02:29:41.155Z,6.90
2022-10-02T02:32:35.979Z,7.88
2022-10-02T02:35:28.729Z,6.20
2022-10-02T02:38:23.151Z,2.88
2022-10-02T02:41:16.588Z,3.10
2022-10-02T02:44:10.300Z,4.70
2022-10-02T02:47:07.429Z,6.70
2022-10-02T02:50:03.038Z,6.28
2022-10-02T02:52:55.346Z,7.25
2022-10-02T02:55:48.123Z,11.90
2022-10-02T02:58:40.927Z,7.75
2022-10-02T03:01:29.272Z,5.80
2022-10-02T03:04:17.604Z,10.30
2022-10-02T03:07:12.195Z,11.50
2022-10-02T03:10:09.828Z,13.80
2022-10-02T03:13:07.529Z,11.95
2022-10-02T03:16:08.007Z,8.75
2022-10-02T03:19:09.056Z,12.23
2022-10-02T03:22:05.925Z,12.05
2022-10-02T03:25:01.486Z,8.57
2022-10-02T03:27:53.890Z,7.82
2022-10-02T03:30:43.952Z,8.40
2022-10-02T03:33:34.214Z,12.70
2022-10-02T03:36:24.613Z,15.85
2022-10-02T03:39:24.762Z,12.93
2022-10-02T03:45:05.083Z,15.57
2022-10-02T03:47:53.903Z,9.13
2022-10-02T03:50:42.395Z,14.73
2022-10-02T03:53:34.222Z,10.75
2022-10-02T03:56:34.393Z,12.73
2022-10-02T03:59:35.996Z,15.75
2022-10-02T04:02:32.397Z,7.68
2022-10-02T04:05:26.010Z,10.10
2022-10-02T04:08:19.422Z,11.10
2022-10-02T04:11:13.026Z,10.02
2022-10-02T04:14:08.639Z,13.52
2022-10-02T04:17:07.427Z,12.05
2022-10-02T04:20:00.346Z,9.18
2022-10-02T04:22:54.071Z,9.02
2022-10-02T04:25:48.610Z,8.45
2022-10-02T04:28:42.561Z,15.23
2022-10-02T04:31:30.886Z,9.23
2022-10-02T04:34:20.618Z,13.18
2022-10-02T04:37:28.570Z,7.20
2022-10-02T04:40:31.059Z,14.45
2022-10-02T04:43:34.495Z,10.20
2022-10-02T04:46:46.454Z,14.40
2022-10-02T04:49:51.548Z,14.82
2022-10-02T04:52:54.278Z,11.57
2022-10-02T04:55:58.180Z,12.73
2022-10-02T04:59:04.431Z,12.40
2022-10-02T05:02:04.608Z,15.10
2022-10-02T05:05:13.739Z,19.40
2022-10-02T05:08:39.288Z,19.17
2022-10-02T05:11:56.990Z,10.38
2022-10-02T05:15:09.527Z,16.75
2022-10-02T05:18:17.726Z,16.67
2022-10-02T05:21:22.203Z,21.60
2022-10-02T05:24:28.758Z,17.40
2022-10-02T05:27:52.275Z,17.63
2022-10-02T05:30:49.198Z,20.05
2022-10-02T05:33:49.003Z,24.27
2022-10-02T05:37:09.214Z,26.70
2022-10-02T05:40:04.760Z,25.83
2022-10-02T05:43:00.236Z,25.08
2022-10-02T05:45:53.605Z,21.25
2022-10-02T05:48:46.365Z,22.42
2022-10-02T05:51:42.733Z,21.35
2022-10-02T05:54:42.456Z,20.65
2022-10-02T05:57:34.419Z,23.55
2022-10-02T06:00:32.695Z,21.38
2022-10-02T06:03:26.349Z,20.38
2022-10-02T06:06:21.230Z,24.38
2022-10-02T06:09:19.748Z,22.52
2022-10-02T06:12:14.969Z,20.60
2022-10-02T06:15:08.411Z,22.88
2022-10-02T06:18:02.620Z,26.75
2022-10-02T06:20:55.855Z,27.20
2022-10-02T06:23:47.555Z,19.27
2022-10-02T06:26:43.109Z,26.05
2022-10-02T06:29:39.693Z,20.08
2022-10-02T06:32:34.493Z,29.10
2022-10-02T06:35:38.104Z,23.08
2022-10-02T06:38:40.305Z,23.88
2022-10-02T06:41:39.221Z,24.13
2022-10-02T06:44:36.743Z,21.40
2022-10-02T06:47:35.379Z,30.52
2022-10-02T06:50:37.670Z,23.25
2022-10-02T06:53:45.282Z,20.75
2022-10-02T06:56:45.444Z,31.17
2022-10-02T06:59:50.754Z,26.13
2022-10-02T07:03:17.060Z,21.27
2022-10-02T07:06:43.474Z,23.17
2022-10-02T07:10:09.198Z,25.88
2022-10-02T07:13:27.080Z,25.80
2022-10-02T07:16:39.585Z,26.27
2022-10-02T07:19:47.728Z,23.02
2022-10-02T07:22:49.362Z,24.83
2022-10-02T07:25:48.638Z,30.20
2022-10-02T07:28:43.311Z,41.95
2022-10-02T07:31:47.393Z,68.60
2022-10-02T07:34:43.710Z,43.33
2022-10-02T07:37:43.196Z,39.80
2022-10-02T07:40:43.881Z,26.88
2022-10-02T07:43:46.340Z,28.65
2022-10-02T07:46:44.550Z,30.60
2022-10-02T07:49:42.929Z,32.97
2022-10-02T07:52:39.270Z,29.48
2022-10-02T07:55:27.732Z,30.40
2022-10-02T07:58:19.902Z,23.63
2022-10-02T08:01:14.440Z,31.35
2022-10-02T08:04:10.516Z,27.42
2022-10-02T08:07:01.690Z,25.75
2022-10-02T08:09:52.988Z,25.98
2022-10-02T08:12:48.510Z,24.60
2022-10-02T08:15:38.620Z,26.75
2022-10-02T08:18:35.101Z,18.93
2022-10-02T08:21:26.766Z,25.63
2022-10-02T08:24:18.904Z,21.13
2022-10-02T08:27:14.060Z,14.13
2022-10-02T08:30:06.605Z,19.23
2022-10-02T08:32:55.484Z,19.42
2022-10-02T08:36:17.153Z,18.88
2022-10-02T08:39:22.653Z,13.02
2022-10-02T08:42:52.865Z,13.95
2022-10-02T08:46:23.562Z,14.60
2022-10-02T08:49:39.506Z,14.18
2022-10-02T08:52:42.591Z,14.90
2022-10-02T08:56:09.736Z,11.55
2022-10-02T08:59:25.979Z,9.68
2022-10-02T09:02:42.043Z,14.77
2022-10-02T09:06:07.592Z,12.27
2022-10-02T09:09:18.800Z,12.02
2022-10-02T09:12:58.251Z,14.82
2022-10-02T09:15:54.912Z,14.48
2022-10-02T09:19:00.031Z,13.60
2022-10-02T09:22:01.792Z,13.38
2022-10-02T09:25:12.522Z,11.43
2022-10-02T09:28:54.956Z,17.40
2022-10-02T09:32:25.305Z,11.23
2022-10-02T09:35:40.926Z,13.73
2022-10-02T09:39:06.416Z,10.38
2022-10-02T09:42:45.314Z,8.45
2022-10-02T09:46:06.731Z,11.88
2022-10-02T09:49:49.200Z,17.13
2022-10-02T09:53:09.274Z,10.43
2022-10-02T09:56:36.340Z,12.27
2022-10-02T09:59:59.679Z,11.48
2022-10-02T10:03:18.195Z,8.23
2022-10-02T10:07:04.463Z,13.00
2022-10-02T10:10:21.903Z,9.25
2022-10-02T10:14:00.372Z,9.85
2022-10-02T10:17:26.333Z,13.02
2022-10-02T10:20:38.946Z,15.15
2022-10-02T10:23:45.904Z,10.52
2022-10-02T10:26:57.416Z,9.63
2022-10-02T10:30:18.737Z,7.55
2022-10-02T10:33:34.683Z,9.93
2022-10-02T10:36:57.234Z,13.75
2022-10-02T10:40:26.452Z,8.57
2022-10-02T10:43:47.746Z,8.70
2022-10-02T10:46:59.473Z,10.05
2022-10-02T10:50:08.773Z,13.15
2022-10-02T10:53:28.349Z,10.65
2022-10-02T10:56:37.056Z,7.97
2022-10-02T11:00:04.369Z,9.90
2022-10-02T11:03:24.388Z,7.25
2022-10-02T11:06:52.247Z,12.35
2022-10-02T11:10:15.566Z,9.95
2022-10-02T11:13:31.144Z,12.75
2022-10-02T11:16:34.445Z,9.00
2022-10-02T11:19:41.278Z,9.32
2022-10-02T11:23:01.687Z,10.82
2022-10-02T11:26:09.537Z,7.10
2022-10-02T11:29:15.145Z,5.68
2022-10-02T11:32:46.566Z,7.63
2022-10-02T11:35:59.423Z,8.40
2022-10-02T11:39:15.149Z,9.80
2022-10-02T11:42:30.078Z,6.45
2022-10-02T11:45:46.005Z,7.32
2022-10-02T11:48:58.378Z,6.32
2022-10-02T11:52:06.183Z,6.63
2022-10-02T11:55:23.318Z,9.15
2022-10-02T11:58:21.802Z,5.45
2022-10-02T12:01:21.233Z,5.32
2022-10-02T12:04:23.103Z,6.38
2022-10-02T12:07:32.668Z,5.20
2022-10-02T12:10:32.500Z,5.13
2022-10-02T12:13:59.921Z,6.65
2022-10-02T12:17:05.757Z,11.10
2022-10-02T12:20:25.295Z,5.78
2022-10-02T12:23:45.018Z,8.23
2022-10-02T12:27:03.870Z,7.47
2022-10-02T12:30:07.703Z,7.43
2022-10-02T12:33:08.273Z,7.55
2022-10-02T12:36:24.348Z,4.18
2022-10-02T12:39:25.512Z,4.82
2022-10-02T12:42:54.228Z,5.65
2022-10-02T12:46:13.199Z,7.05
2022-10-02T12:49:16.370Z,5.82
2022-10-02T12:52:29.508Z,5.43
2022-10-02T12:55:54.161Z,8.23
2022-10-02T12:58:56.668Z,2.67
2022-10-02T13:02:33.093Z,7.22
2022-10-02T13:06:14.526Z,4.80
2022-10-02T13:09:17.235Z,5.53
2022-10-02T13:12:19.138Z,8.27
2022-10-02T13:15:24.933Z,4.22
2022-10-02T13:18:27.024Z,5.50
2022-10-02T13:21:23.956Z,7.75
2022-10-02T13:24:33.217Z,3.55
2022-10-02T13:27:31.651Z,5.88
2022-10-02T13:30:22.099Z,8.93
2022-10-02T13:33:28.102Z,8.77
2022-10-02T13:36:21.783Z,7.28
2022-10-02T13:39:30.645Z,5.20
2022-10-02T13:42:30.143Z,7.75
2022-10-02T13:45:27.105Z,6.32
2022-10-02T13:48:26.886Z,8.80
2022-10-02T13:51:20.417Z,8.50
2022-10-02T13:54:40.631Z,7.70
2022-10-02T13:57:42.132Z,6.30
2022-10-02T14:00:58.473Z,7.00
2022-10-02T14:04:06.051Z,5.97
2022-10-02T14:07:02.646Z,6.05
2022-10-02T14:10:02.613Z,4.70
2022-10-02T14:13:07.652Z,6.97
2022-10-02T14:16:11.630Z,5.30
2022-10-02T14:19:36.462Z,7.80
2022-10-02T14:22:37.997Z,6.68
2022-10-02T14:25:45.651Z,4.93
2022-10-02T14:29:08.960Z,6.47
2022-10-02T14:32:39.013Z,6.28
2022-10-02T14:35:36.635Z,10.13
2022-10-02T14:38:49.437Z,7.60
2022-10-02T14:41:56.006Z,8.40
2022-10-02T14:45:18.222Z,4.38
2022-10-02T14:48:30.876Z,8.52
2022-10-02T14:51:35.499Z,9.23
2022-10-02T14:54:37.748Z,9.40
2022-10-02T14:57:40.713Z,7.50
2022-10-02T15:00:39.638Z,7.75
2022-10-02T15:04:01.422Z,6.10
2022-10-02T15:07:04.370Z,6.40
2022-10-02T15:10:07.342Z,4.10
2022-10-02T15:13:02.469Z,4.90
2022-10-02T15:16:12.256Z,7.05
2022-10-02T15:19:12.983Z,6.50
2022-10-02T15:22:07.990Z,6.25
2022-10-02T15:25:00.750Z,4.22
2022-10-02T15:28:12.312Z,5.88
2022-10-02T15:31:18.777Z,5.60
2022-10-02T15:34:17.967Z,5.93
2022-10-02T15:37:28.066Z,10.05
2022-10-02T15:40:29.884Z,5.85
2022-10-02T15:43:35.796Z,5.10
2022-10-02T15:46:30.138Z,3.80
2022-10-02T15:49:33.913Z,3.42
2022-10-02T15:52:34.870Z,6.95
2022-10-02T15:58:28.806Z,8.35
2022-10-02T16:01:29.533Z,9.40
2022-10-02T16:04:26.292Z,6.13
2022-10-02T16:07:53.272Z,7.10
2022-10-02T16:10:59.632Z,8.75
2022-10-02T16:13:59.265Z,7.50
2022-10-02T16:17:17.339Z,6.80
2022-10-02T16:20:23.309Z,5.93
2022-10-02T16:23:26.256Z,11.88
2022-10-02T16:26:26.234Z,12.95
2022-10-02T16:29:27.528Z,11.35
2022-10-02T16:32:24.599Z,4.70
2022-10-02T16:35:24.243Z,6.85
2022-10-02T16:38:19.570Z,8.02
2022-10-02T16:41:25.573Z,8.90
2022-10-02T16:44:29.230Z,10.05
2022-10-02T16:47:27.581Z,7.95
2022-10-02T16:50:22.151Z,6.93
2022-10-02T16:53:20.348Z,7.85
2022-10-02T16:56:14.557Z,9.85
2022-10-02T16:59:10.824Z,4.28
2022-10-02T17:02:17.573Z,10.90
2022-10-02T17:05:20.368Z,7.78
2022-10-02T17:08:15.222Z,8.50
2022-10-02T17:11:10.231Z,7.97
2022-10-02T17:14:19.405Z,5.35
2022-10-02T17:17:15.986Z,8.23
2022-10-02T17:20:17.797Z,7.35
2022-10-02T17:23:15.620Z,7.22
2022-10-02T17:26:11.588Z,5.65
2022-10-02T17:29:12.442Z,7.68
2022-10-02T17:32:01.566Z,9.35
2022-10-02T17:34:50.666Z,6.75
2022-10-02T17:38:06.632Z,7.45
2022-10-02T17:41:06.561Z,4.50
2022-10-02T17:44:04.876Z,5.38
2022-10-02T17:47:09.936Z,11.73
2022-10-02T17:50:17.807Z,9.75
2022-10-02T17:53:52.756Z,7.10
2022-10-02T17:57:06.301Z,7.32
2022-10-02T18:00:11.325Z,8.50
2022-10-02T18:03:32.898Z,7.60
2022-10-02T18:06:32.025Z,6.15
2022-10-02T18:09:39.835Z,6.07
2022-10-02T18:12:45.058Z,4.82
2022-10-02T18:15:53.420Z,5.32
2022-10-02T18:18:53.097Z,5.03
2022-10-02T18:21:50.066Z,6.38
2022-10-02T18:25:12.453Z,5.00
2022-10-02T18:28:32.510Z,7.82
2022-10-02T18:31:54.511Z,7.50
2022-10-02T18:34:59.469Z,5.18
2022-10-02T18:38:13.510Z,9.43
2022-10-02T18:41:09.576Z,4.65
2022-10-02T18:44:11.621Z,8.48
2022-10-02T18:47:10.348Z,13.38
2022-10-02T18:50:23.665Z,7.82
2022-10-02T18:53:38.656Z,10.55
2022-10-02T18:56:47.231Z,5.13
2022-10-02T18:59:52.809Z,8.90
2022-10-02T19:02:56.795Z,7.25
2022-10-02T19:05:52.132Z,10.05
2022-10-02T19:09:14.070Z,8.10
2022-10-02T19:12:15.236Z,6.50
2022-10-02T19:18:04.108Z,7.88
2022-10-02T19:20:59.831Z,5.50
2022-10-02T19:23:52.126Z,11.52
2022-10-02T19:26:46.465Z,10.40
2022-10-02T19:29:38.879Z,9.57
2022-10-02T19:32:31.539Z,6.45
2022-10-02T19:35:25.656Z,12.30
2022-10-02T19:38:27.629Z,9.05
2022-10-02T19:41:16.450Z,14.10
2022-10-02T19:44:16.889Z,7.75
2022-10-02T19:47:16.824Z,11.32
2022-10-02T19:50:07.393Z,6.25
2022-10-02T19:52:58.962Z,8.13
2022-10-02T19:55:51.253Z,8.73
2022-10-02T19:58:44.502Z,10.32
2022-10-02T20:01:47.645Z,12.95
2022-10-02T20:04:36.869Z,8.93
2022-10-02T20:07:29.084Z,10.93
2022-10-02T20:10:23.376Z,8.68
2022-10-02T20:13:18.260Z,7.95
2022-10-02T20:16:31.628Z,10.15
2022-10-02T20:19:24.179Z,12.38
2022-10-02T20:22:30.022Z,11.10
2022-10-02T20:25:26.589Z,11.05
2022-10-02T20:28:19.312Z,9.38
2022-10-02T20:31:14.922Z,10.73
2022-10-02T20:34:09.608Z,14.63
2022-10-02T20:37:05.402Z,12.77
2022-10-02T20:40:02.014Z,12.63
2022-10-02T20:42:59.069Z,12.90
2022-10-02T20:45:53.142Z,14.82
2022-10-02T20:49:14.012Z,12.82
2022-10-02T20:52:40.611Z,8.40
2022-10-02T20:55:35.957Z,10.65
2022-10-02T20:58:49.302Z,10.88
2022-10-02T21:01:47.041Z,14.15
2022-10-02T21:05:17.236Z,12.48
2022-10-02T21:08:26.915Z,9.88
2022-10-02T21:11:27.107Z,11.27
2022-10-02T21:14:39.540Z,14.97
2022-10-02T21:18:05.511Z,10.98
2022-10-02T21:21:29.007Z,15.07
2022-10-02T21:25:02.171Z,11.20
2022-10-02T21:28:27.462Z,8.02
2022-10-02T21:31:31.069Z,17.90
2022-10-02T21:34:31.922Z,11.15
2022-10-02T21:37:27.989Z,14.00
2022-10-02T21:40:52.446Z,12.15
2022-10-02T21:44:22.524Z,14.70
2022-10-02T21:47:50.118Z,14.65
2022-10-02T21:51:04.675Z,13.73
2022-10-02T21:54:48.282Z,10.80
2022-10-02T21:58:20.954Z,16.88
2022-10-02T22:01:57.109Z,8.63
2022-10-02T22:05:24.724Z,21.13
2022-10-02T22:08:21.099Z,20.23
2022-10-02T22:11:17.130Z,13.30
2022-10-02T22:14:11.764Z,20.58
2022-10-02T22:17:11.310Z,18.13
2022-10-02T22:20:20.516Z,14.23
2022-10-02T22:23:31.780Z,15.15
2022-10-02T22:29:23.668Z,11.40
2022-10-02T22:32:48.528Z,9.82
2022-10-02T22:36:04.037Z,13.68
2022-10-02T22:38:54.377Z,13.63
2022-10-02T22:41:50.883Z,12.68
2022-10-02T22:44:47.175Z,10.32
2022-10-02T22:47:41.105Z,14.43
2022-10-02T22:50:36.934Z,10.77
2022-10-02T22:53:30.998Z,12.48
2022-10-02T22:56:28.705Z,10.20
2022-10-02T22:59:23.994Z,20.55
2022-10-02T23:02:23.340Z,10.45
2022-10-02T23:05:15.793Z,16.45
2022-10-02T23:08:16.184Z,25.80
2022-10-02T23:11:14.514Z,15.48
2022-10-02T23:14:06.637Z,14.30
2022-10-02T23:17:05.848Z,12.40
2022-10-02T23:20:00.484Z,9.48
2022-10-02T23:22:55.142Z,13.20
2022-10-02T23:25:49.290Z,17.48
2022-10-02T23:28:47.431Z,14.63
2022-10-02T23:31:42.552Z,15.45
2022-10-02T23:34:40.227Z,10.90
2022-10-02T23:37:46.213Z,10.95
2022-10-02T23:41:10.233Z,17.98
2022-10-02T23:44:11.542Z,13.32
2022-10-02T23:47:25.343Z,14.57
2022-10-02T23:50:22.937Z,17.65
2022-10-02T23:53:49.334Z,13.55
2022-10-02T23:57:01.550Z,13.15
